Time;durP1;ratioP1;P1;durP2;ratioP2;P2;SDS_P1;SDS_P2;PMS_P1;PMS_P2;Temp;Humidity;BMP_temperature;BMP_pressure;BME280_temperature;BME280_humidity;BME280_pressure;Samples;Min_cycle;Max_cycle;Signal;HPM_P1;HPM_P2
2022/10/19 00:00:48;;;;;;;6.10;3.77;;;8.50;70.50;;;;;;5049905;28;20586;-74
2022/10/19 00:03:15;;;;;;;7.00;3.53;;;8.50;71.30;;;;;;5031210;28;20245;-74
2022/10/19 00:05:41;;;;;;;3.53;3.23;;;8.40;71.10;;;;;;5048809;28;20183;-73
2022/10/19 00:08:07;;;;;;;4.20;3.47;;;8.40;71.80;;;;;;5051995;28;20179;-72
2022/10/19 00:10:33;;;;;;;4.63;3.53;;;8.40;72.30;;;;;;5051164;28;20241;-74
2022/10/19 00:12:59;;;;;;;4.60;3.13;;;8.40;72.60;;;;;;5052524;28;20191;-74
2022/10/19 00:15:25;;;;;;;2.20;2.10;;;8.30;72.20;;;;;;5051641;28;20192;-74
2022/10/19 00:17:50;;;;;;;4.17;2.47;;;8.30;72.40;;;;;;5050900;28;20244;-74
2022/10/19 00:20:16;;;;;;;3.37;2.07;;;8.20;72.30;;;;;;5048263;28;20776;-73
2022/10/19 00:22:42;;;;;;;6.30;2.63;;;8.20;72.30;;;;;;5050639;28;20184;-73
2022/10/19 00:25:08;;;;;;;2.87;2.77;;;8.10;72.80;;;;;;5049272;28;20184;-74
2022/10/19 00:27:34;;;;;;;4.30;2.37;;;8.10;72.60;;;;;;5052213;28;20179;-73
2022/10/19 00:30:00;;;;;;;5.50;1.90;;;8.00;72.70;;;;;;5048865;28;20217;-74
2022/10/19 00:32:26;;;;;;;3.73;2.63;;;8.00;72.50;;;;;;5049978;28;20748;-74
2022/10/19 00:34:51;;;;;;;1.87;1.77;;;8.00;72.40;;;;;;5051794;28;20171;-74
2022/10/19 00:37:17;;;;;;;2.60;1.83;;;7.90;72.20;;;;;;5052158;28;20180;-74
2022/10/19 00:39:43;;;;;;;4.30;1.97;;;7.90;71.90;;;;;;5052028;28;20198;-74
2022/10/19 00:42:11;;;;;;;2.63;2.23;;;7.90;72.90;;;;;;5048326;28;20574;-74
2022/10/19 00:44:36;;;;;;;3.33;1.90;;;7.90;72.40;;;;;;5030880;28;20310;-74
2022/10/19 00:47:06;;;;;;;2.57;2.37;;;7.80;72.60;;;;;;5044854;28;20275;-74
2022/10/19 00:49:37;;;;;;;1.77;1.73;;;7.80;72.00;;;;;;5047349;28;20280;-74
2022/10/19 00:52:11;;;;;;;2.73;2.17;;;7.80;71.90;;;;;;5046199;28;20261;-74
2022/10/19 00:54:39;;;;;;;2.53;2.23;;;7.70;71.50;;;;;;5047258;28;20182;-76
2022/10/19 00:57:06;;;;;;;3.03;2.23;;;7.70;71.70;;;;;;5051990;28;20299;-74
2022/10/19 00:59:33;;;;;;;4.23;2.00;;;7.70;71.90;;;;;;5047801;28;20191;-74
2022/10/19 01:02:03;;;;;;;4.20;1.97;;;7.70;72.00;;;;;;5050913;28;20183;-74
2022/10/19 01:04:31;;;;;;;2.37;2.17;;;7.60;72.00;;;;;;5051771;28;20188;-74
2022/10/19 01:06:58;;;;;;;3.10;2.10;;;7.70;73.80;;;;;;5051444;28;20191;-74
2022/10/19 01:09:24;;;;;;;3.47;1.70;;;7.60;74.30;;;;;;5050473;28;20175;-74
2022/10/19 01:11:55;;;;;;;3.87;2.37;;;7.60;74.30;;;;;;5053224;28;20570;-74
2022/10/19 01:14:33;;;;;;;1.90;1.80;;;7.60;73.60;;;;;;5053117;28;20187;-73
2022/10/19 01:17:36;;;;;;;2.43;2.17;;;7.50;73.70;;;;;;5043000;28;20542;-75
2022/10/19 01:20:04;;;;;;;4.93;1.90;;;7.50;72.70;;;;;;5049797;28;20183;-74
2022/10/19 01:23:09;;;;;;;1.60;1.50;;;7.40;72.50;;;;;;5050252;28;20188;-73
2022/10/19 01:25:53;;;;;;;3.10;2.17;;;7.50;73.00;;;;;;5051529;28;20189;-75
2022/10/19 01:28:38;;;;;;;3.87;1.80;;;7.50;73.00;;;;;;5033554;28;20680;-74
2022/10/19 01:31:12;;;;;;;1.87;1.87;;;7.50;73.40;;;;;;5052157;28;20368;-74
2022/10/19 01:33:58;;;;;;;1.40;1.30;;;7.50;73.70;;;;;;5047082;28;20184;-74
2022/10/19 01:36:27;;;;;;;3.37;1.40;;;7.50;73.20;;;;;;5048597;28;20199;-74
2022/10/19 01:39:08;;;;;;;1.57;1.53;;;7.50;73.60;;;;;;5052553;28;20656;-74
2022/10/19 01:41:44;;;;;;;1.70;1.60;;;7.40;72.40;;;;;;5053177;28;20637;-73
2022/10/19 01:44:24;;;;;;;2.40;1.93;;;7.50;72.70;;;;;;5031872;28;20210;-74
2022/10/19 01:47:01;;;;;;;2.00;1.80;;;7.50;73.30;;;;;;5052723;28;20180;-74
2022/10/19 01:49:46;;;;;;;1.50;1.40;;;7.50;72.90;;;;;;5051149;28;20188;-75
2022/10/19 01:52:16;;;;;;;2.83;1.40;;;7.50;72.70;;;;;;5050845;28;20183;-73
2022/10/19 01:54:46;;;;;;;4.40;1.80;;;7.50;72.80;;;;;;5055795;28;20182;-73
2022/10/19 01:57:16;;;;;;;2.03;1.93;;;7.40;72.70;;;;;;5035767;28;20575;-74
2022/10/19 01:59:43;;;;;;;1.87;1.77;;;7.40;73.00;;;;;;5051872;28;20209;-73
2022/10/19 02:02:10;;;;;;;2.03;1.93;;;7.40;73.10;;;;;;5058211;28;20587;-73
2022/10/19 02:04:37;;;;;;;1.83;1.73;;;7.50;73.10;;;;;;5047458;28;20184;-73
2022/10/19 02:07:05;;;;;;;2.63;1.80;;;7.50;73.80;;;;;;5054916;28;20263;-74
2022/10/19 02:09:31;;;;;;;1.63;1.53;;;7.40;74.20;;;;;;5033143;28;20693;-73
2022/10/19 02:12:00;;;;;;;1.53;1.43;;;7.40;74.40;;;;;;5057287;28;20184;-74
2022/10/19 02:14:31;;;;;;;1.53;1.43;;;7.40;74.60;;;;;;5049224;28;20188;-74
2022/10/19 02:17:06;;;;;;;2.00;1.47;;;7.40;74.00;;;;;;5050876;28;20606;-73
2022/10/19 02:19:32;;;;;;;1.47;1.47;;;7.30;73.80;;;;;;5050054;28;20187;-73
2022/10/19 02:21:58;;;;;;;1.20;1.20;;;7.30;74.50;;;;;;5047798;28;20245;-73
2022/10/19 02:24:24;;;;;;;2.07;1.40;;;7.20;74.30;;;;;;5051784;28;20210;-74
2022/10/19 02:26:50;;;;;;;1.50;1.40;;;7.20;75.00;;;;;;5051842;28;20244;-73
2022/10/19 02:29:16;;;;;;;2.20;2.10;;;7.20;74.90;;;;;;5055883;28;20175;-74
2022/10/19 02:31:42;;;;;;;1.60;1.50;;;7.20;74.60;;;;;;5054522;28;20211;-74
2022/10/19 02:34:08;;;;;;;4.10;1.53;;;7.10;74.00;;;;;;5046584;28;20183;-74
2022/10/19 02:36:34;;;;;;;1.57;1.53;;;7.10;74.30;;;;;;5054378;28;20184;-74
2022/10/19 02:39:00;;;;;;;1.67;1.57;;;7.10;73.80;;;;;;5048424;28;20611;-73
2022/10/19 02:41:35;;;;;;;1.00;1.00;;;7.00;73.70;;;;;;5038150;28;20183;-74
2022/10/19 02:44:07;;;;;;;1.73;1.63;;;7.00;73.60;;;;;;5050856;28;20578;-73
2022/10/19 02:46:41;;;;;;;1.63;1.30;;;7.00;73.50;;;;;;5050617;28;20180;-73
2022/10/19 02:49:09;;;;;;;2.10;2.00;;;7.00;74.10;;;;;;5053486;28;20182;-74
2022/10/19 02:51:59;;;;;;;1.70;1.57;;;7.00;74.40;;;;;;5051544;28;20211;-74
2022/10/19 02:54:25;;;;;;;1.67;1.60;;;7.00;74.40;;;;;;5034817;28;20211;-73
2022/10/19 02:56:51;;;;;;;1.20;1.20;;;6.90;74.40;;;;;;5054011;28;20179;-73
2022/10/19 02:59:17;;;;;;;2.03;1.30;;;6.90;74.20;;;;;;5055295;28;20250;-73
2022/10/19 03:01:43;;;;;;;2.27;1.60;;;6.90;75.80;;;;;;5053928;28;20191;-74
2022/10/19 03:04:09;;;;;;;1.60;1.50;;;6.80;75.90;;;;;;5051234;28;20621;-73
2022/10/19 03:06:34;;;;;;;1.80;1.47;;;6.80;76.20;;;;;;5052289;28;20276;-73
2022/10/19 03:09:00;;;;;;;1.50;1.20;;;6.70;76.20;;;;;;5052740;28;20183;-73
2022/10/19 03:11:26;;;;;;;1.70;1.60;;;6.70;75.50;;;;;;5048755;28;20695;-74
2022/10/19 03:13:51;;;;;;;2.57;1.70;;;6.70;75.50;;;;;;5050926;28;20179;-73
2022/10/19 03:16:17;;;;;;;1.73;1.63;;;6.60;75.10;;;;;;5055500;28;20233;-73
2022/10/19 03:18:43;;;;;;;1.63;1.53;;;6.60;74.60;;;;;;5054593;28;20186;-73
2022/10/19 03:21:11;;;;;;;1.13;1.13;;;6.60;74.60;;;;;;5048255;28;20184;-73
2022/10/19 03:23:37;;;;;;;2.57;1.43;;;6.50;74.30;;;;;;5048092;28;20620;-75
2022/10/19 03:26:04;;;;;;;0.90;0.90;;;6.50;74.00;;;;;;5050826;28;20181;-72
2022/10/19 03:28:31;;;;;;;1.80;1.20;;;6.50;74.10;;;;;;5049514;28;20547;-74
2022/10/19 03:30:56;;;;;;;1.67;1.60;;;6.50;74.30;;;;;;5049954;28;20268;-73
2022/10/19 03:33:23;;;;;;;1.63;1.63;;;6.50;74.40;;;;;;5043067;28;20211;-72
2022/10/19 03:35:49;;;;;;;4.47;1.40;;;6.50;75.70;;;;;;5047471;28;20258;-72
2022/10/19 03:38:15;;;;;;;1.70;1.60;;;6.50;75.50;;;;;;5055126;28;20191;-74
2022/10/19 03:40:41;;;;;;;2.40;2.20;;;6.50;76.00;;;;;;5049443;28;20279;-74
2022/10/19 03:43:07;;;;;;;2.10;1.90;;;6.50;76.00;;;;;;5047413;28;20250;-74
2022/10/19 03:45:32;;;;;;;2.97;1.87;;;6.50;75.90;;;;;;5047544;28;20206;-75
2022/10/19 03:47:58;;;;;;;3.70;2.00;;;6.50;75.20;;;;;;5048764;28;20778;-73
2022/10/19 03:50:24;;;;;;;1.57;1.47;;;6.40;75.10;;;;;;5051353;28;20229;-73
2022/10/19 03:52:50;;;;;;;2.10;1.90;;;6.50;75.60;;;;;;5048314;28;20178;-73
2022/10/19 03:55:16;;;;;;;2.07;1.63;;;6.40;75.80;;;;;;5054131;28;21223;-74
2022/10/19 03:57:42;;;;;;;2.30;1.77;;;6.40;75.90;;;;;;5048961;28;20191;-75
2022/10/19 04:00:09;;;;;;;1.50;1.40;;;6.40;75.80;;;;;;5032882;28;20801;-74
2022/10/19 04:02:35;;;;;;;1.77;1.67;;;6.40;75.80;;;;;;5054531;28;20174;-75
2022/10/19 04:05:00;;;;;;;2.17;1.70;;;6.40;76.00;;;;;;5051419;28;20581;-74
2022/10/19 04:07:26;;;;;;;1.73;1.73;;;6.40;76.10;;;;;;5052249;28;20657;-75
2022/10/19 04:09:52;;;;;;;1.83;1.73;;;6.30;75.80;;;;;;5051545;28;20218;-74
2022/10/19 04:12:17;;;;;;;2.00;1.90;;;6.30;75.60;;;;;;5054521;28;20183;-74
2022/10/19 04:14:43;;;;;;;1.77;1.67;;;6.30;76.10;;;;;;5036000;28;20232;-73
2022/10/19 04:17:10;;;;;;;1.73;1.63;;;6.30;76.10;;;;;;5049539;28;20207;-76
2022/10/19 04:19:35;;;;;;;1.80;1.70;;;6.20;75.90;;;;;;5051381;28;20225;-75
2022/10/19 04:22:01;;;;;;;1.60;1.53;;;6.20;75.60;;;;;;5034283;28;20176;-73
2022/10/19 04:24:27;;;;;;;2.43;2.23;;;6.20;76.00;;;;;;5053912;28;20211;-74
2022/10/19 04:26:54;;;;;;;2.00;1.90;;;6.20;76.40;;;;;;5047547;28;20187;-74
2022/10/19 04:29:22;;;;;;;2.20;2.10;;;6.20;76.60;;;;;;5051884;28;20232;-74
2022/10/19 04:31:49;;;;;;;3.57;2.57;;;6.20;76.40;;;;;;5032940;28;20215;-73
2022/10/19 04:34:15;;;;;;;2.57;2.43;;;6.20;76.60;;;;;;5052746;28;20190;-73
2022/10/19 04:36:41;;;;;;;3.43;3.17;;;6.20;76.60;;;;;;5051205;28;20210;-72
2022/10/19 04:39:07;;;;;;;3.43;3.23;;;6.20;76.70;;;;;;5054505;28;20171;-73
2022/10/19 04:41:33;;;;;;;5.67;4.00;;;6.20;77.20;;;;;;5056034;28;20179;-74
2022/10/19 04:44:01;;;;;;;5.30;3.93;;;6.20;77.20;;;;;;5053468;28;20199;-74
2022/10/19 04:46:27;;;;;;;3.80;3.50;;;6.20;77.50;;;;;;5052329;28;20272;-74
2022/10/19 04:48:54;;;;;;;9.40;3.47;;;6.20;77.60;;;;;;5051027;28;20198;-75
2022/10/19 04:51:21;;;;;;;5.03;3.73;;;6.10;77.70;;;;;;5049782;28;20295;-75
2022/10/19 04:53:47;;;;;;;4.30;3.30;;;6.10;77.30;;;;;;5053802;28;20887;-74
2022/10/19 04:56:16;;;;;;;6.47;3.50;;;6.10;77.70;;;;;;5050735;28;20183;-75
2022/10/19 04:58:42;;;;;;;5.20;3.70;;;6.10;77.80;;;;;;5049744;28;20183;-75
2022/10/19 05:01:12;;;;;;;6.07;3.73;;;6.10;78.00;;;;;;5048473;28;20624;-75
2022/10/19 05:03:38;;;;;;;4.57;3.97;;;6.10;77.80;;;;;;5046750;28;20179;-74
2022/10/19 05:06:05;;;;;;;5.70;4.07;;;6.10;78.50;;;;;;5045779;28;21004;-73
2022/10/19 05:08:31;;;;;;;3.93;3.57;;;6.00;77.80;;;;;;5055607;28;20185;-74
2022/10/19 05:11:09;;;;;;;3.67;3.37;;;6.00;77.90;;;;;;5052532;28;20230;-72
2022/10/19 05:13:36;;;;;;;9.13;4.17;;;6.00;77.60;;;;;;5051789;28;20681;-73
2022/10/19 05:16:04;;;;;;;8.93;4.77;;;6.00;78.50;;;;;;5054544;28;20195;-73
2022/10/19 05:18:30;;;;;;;5.60;4.33;;;6.00;79.80;;;;;;5056209;28;20186;-73
2022/10/19 05:21:10;;;;;;;5.83;4.80;;;6.00;79.60;;;;;;5056917;28;20187;-73
2022/10/19 05:23:36;;;;;;;5.03;3.67;;;6.00;79.30;;;;;;5051972;28;20209;-74
2022/10/19 05:26:14;;;;;;;4.13;3.40;;;6.00;79.50;;;;;;5054806;28;20207;-73
2022/10/19 05:28:40;;;;;;;5.63;3.60;;;6.00;79.40;;;;;;5037095;28;20655;-73
2022/10/19 05:31:10;;;;;;;4.47;3.77;;;6.00;78.90;;;;;;5055688;28;20211;-74
2022/10/19 05:33:37;;;;;;;5.20;4.00;;;5.90;78.50;;;;;;5048475;28;20944;-73
2022/10/19 05:36:33;;;;;;;3.63;3.20;;;5.90;78.30;;;;;;5048202;28;20270;-73
2022/10/19 05:39:01;;;;;;;3.70;3.40;;;6.00;78.00;;;;;;5057745;28;20190;-75
2022/10/19 05:41:27;;;;;;;5.30;3.27;;;6.00;78.70;;;;;;5049086;28;20184;-73
2022/10/19 05:43:58;;;;;;;4.73;3.83;;;6.10;78.70;;;;;;5035822;28;20202;-73
2022/10/19 05:46:24;;;;;;;4.47;4.17;;;6.10;78.70;;;;;;5048143;28;20186;-75
2022/10/19 05:48:50;;;;;;;6.60;3.67;;;6.10;78.70;;;;;;5056884;28;20240;-72
2022/10/19 05:51:18;;;;;;;3.50;3.20;;;6.20;78.70;;;;;;5051592;28;20753;-75
2022/10/19 05:53:44;;;;;;;3.50;3.20;;;6.20;79.00;;;;;;5036514;28;20194;-73
2022/10/19 05:56:15;;;;;;;7.77;4.30;;;6.30;79.00;;;;;;5052105;28;20198;-73
2022/10/19 05:58:41;;;;;;;7.23;3.60;;;6.30;79.00;;;;;;5046988;28;20202;-72
2022/10/19 06:01:08;;;;;;;8.00;3.60;;;6.40;79.70;;;;;;5049560;28;20179;-72
2022/10/19 06:03:34;;;;;;;9.40;4.20;;;6.40;78.80;;;;;;5030990;28;20187;-73
2022/10/19 06:06:05;;;;;;;5.27;3.83;;;6.40;79.30;;;;;;5047610;28;20230;-74
2022/10/19 06:08:31;;;;;;;3.27;3.07;;;6.50;78.80;;;;;;5044983;28;20641;-74
2022/10/19 06:11:07;;;;;;;5.17;4.23;;;6.50;78.90;;;;;;5047782;28;20357;-75
2022/10/19 06:13:33;;;;;;;5.30;4.17;;;6.60;78.50;;;;;;5053261;28;20179;-74
2022/10/19 06:15:59;;;;;;;3.90;3.57;;;6.60;79.00;;;;;;5050585;28;20595;-74
2022/10/19 06:18:25;;;;;;;6.87;3.83;;;6.70;79.30;;;;;;5053626;28;20179;-74
2022/10/19 06:20:51;;;;;;;9.87;4.27;;;6.70;79.00;;;;;;5054244;28;20187;-73
2022/10/19 06:23:17;;;;;;;3.40;3.20;;;6.80;78.90;;;;;;5049571;28;20180;-73
2022/10/19 06:25:43;;;;;;;6.67;3.70;;;6.80;78.90;;;;;;5050124;28;22054;-74
2022/10/19 06:28:09;;;;;;;4.33;3.60;;;6.90;78.90;;;;;;5053269;28;20200;-73
2022/10/19 06:30:39;;;;;;;5.17;3.87;;;7.00;78.80;;;;;;5045487;28;20358;-75
2022/10/19 06:33:04;;;;;;;4.13;3.83;;;7.10;78.80;;;;;;5033400;28;20247;-73
2022/10/19 06:35:30;;;;;;;6.87;4.00;;;7.10;78.80;;;;;;5053330;28;20180;-73
2022/10/19 06:37:56;;;;;;;4.00;3.60;;;7.20;78.80;;;;;;5050783;28;20263;-72
2022/10/19 06:40:23;;;;;;;4.27;3.87;;;7.30;78.90;;;;;;5037294;28;20187;-73
2022/10/19 06:42:49;;;;;;;3.93;3.53;;;7.40;78.60;;;;;;5034540;28;21055;-74
2022/10/19 06:45:15;;;;;;;4.83;3.63;;;7.50;78.40;;;;;;5053732;28;20244;-74
2022/10/19 06:47:45;;;;;;;6.47;4.97;;;7.60;78.60;;;;;;5054485;28;20622;-74
2022/10/19 06:50:11;;;;;;;6.00;3.70;;;7.60;78.20;;;;;;5050331;28;20241;-74
2022/10/19 06:52:38;;;;;;;3.97;3.57;;;7.80;78.20;;;;;;5050475;28;20183;-74
2022/10/19 06:55:04;;;;;;;13.40;4.87;;;7.90;78.60;;;;;;5053479;28;20657;-74
2022/10/19 06:57:30;;;;;;;4.37;4.07;;;8.00;78.70;;;;;;5050315;28;20176;-75
2022/10/19 06:59:56;;;;;;;8.47;4.93;;;8.10;78.70;;;;;;5052890;28;20179;-74
2022/10/19 07:02:22;;;;;;;6.80;5.33;;;8.20;78.90;;;;;;5050458;28;20211;-74
2022/10/19 07:04:47;;;;;;;8.23;5.17;;;8.40;79.60;;;;;;5052375;28;20185;-75
2022/10/19 07:07:13;;;;;;;7.47;5.63;;;8.80;80.30;;;;;;5050430;28;20195;-74
2022/10/19 07:09:39;;;;;;;5.57;5.07;;;9.40;79.60;;;;;;5049276;28;20180;-75
2022/10/19 07:12:04;;;;;;;7.57;5.63;;;10.10;78.60;;;;;;5052196;28;20207;-75
2022/10/19 07:14:30;;;;;;;7.87;4.90;;;11.00;79.50;;;;;;5051255;28;20360;-74
2022/10/19 07:16:56;;;;;;;5.87;5.33;;;11.90;78.40;;;;;;5052422;28;20179;-75
2022/10/19 07:19:25;;;;;;;11.07;5.85;;;13.00;75.70;;;;;;5050505;28;20176;-75
2022/10/19 07:21:52;;;;;;;13.50;6.88;;;13.90;72.50;;;;;;5052187;28;20176;-74
2022/10/19 07:24:18;;;;;;;10.57;6.40;;;14.80;69.70;;;;;;5052235;28;20676;-75
2022/10/19 07:26:43;;;;;;;17.80;8.05;;;15.70;68.40;;;;;;5051159;28;20178;-74
2022/10/19 07:29:09;;;;;;;12.52;7.00;;;16.60;66.10;;;;;;5055327;28;20233;-75
2022/10/19 07:31:35;;;;;;;13.90;7.10;;;17.30;64.50;;;;;;5055805;28;20333;-75
2022/10/19 07:34:02;;;;;;;11.32;6.65;;;18.20;62.80;;;;;;5050898;28;20600;-74
2022/10/19 07:36:30;;;;;;;10.77;7.07;;;18.90;61.20;;;;;;5033073;28;20843;-73
2022/10/19 07:38:56;;;;;;;12.75;7.28;;;19.60;59.10;;;;;;5053898;28;20198;-74
2022/10/19 07:41:24;;;;;;;10.73;7.20;;;20.30;58.20;;;;;;5053927;28;20232;-75
2022/10/19 07:43:51;;;;;;;10.95;7.22;;;21.00;57.00;;;;;;5055804;28;20229;-74
2022/10/19 07:46:20;;;;;;;13.45;7.28;;;21.70;56.20;;;;;;5052354;28;20206;-75
2022/10/19 07:48:46;;;;;;;7.75;6.63;;;22.40;55.00;;;;;;5046598;28;20176;-75
2022/10/19 07:51:14;;;;;;;10.52;7.13;;;23.00;54.00;;;;;;5051330;28;20211;-75
2022/10/19 07:53:41;;;;;;;12.23;7.72;;;23.60;53.50;;;;;;5054943;28;20262;-74
2022/10/19 07:56:13;;;;;;;17.08;8.43;;;24.20;52.40;;;;;;5050466;28;20179;-73
2022/10/19 07:58:39;;;;;;;15.35;7.95;;;24.80;51.00;;;;;;5056043;28;20183;-73
2022/10/19 08:01:14;;;;;;;15.43;8.38;;;25.30;50.30;;;;;;5052039;28;20274;-74
2022/10/19 08:03:40;;;;;;;9.65;8.05;;;25.70;49.50;;;;;;5055525;28;20193;-74
2022/10/19 08:06:12;;;;;;;11.35;8.38;;;26.20;49.00;;;;;;5050506;28;20627;-74
2022/10/19 08:08:38;;;;;;;9.20;8.25;;;26.60;48.90;;;;;;5055285;28;20249;-74
2022/10/19 08:11:09;;;;;;;13.73;9.10;;;27.00;48.30;;;;;;5049931;28;20212;-73
2022/10/19 08:13:35;;;;;;;13.23;9.20;;;27.50;47.60;;;;;;5029843;28;20215;-73
2022/10/19 08:16:01;;;;;;;9.95;8.45;;;27.90;47.40;;;;;;5049914;28;20242;-75
2022/10/19 08:18:26;;;;;;;14.68;9.98;;;28.40;46.50;;;;;;5053511;28;21000;-75
2022/10/19 08:20:52;;;;;;;11.38;8.65;;;28.80;45.40;;;;;;5054282;28;20190;-75
2022/10/19 08:23:17;;;;;;;10.52;8.27;;;29.30;45.20;;;;;;5054194;28;20195;-74
2022/10/19 08:25:43;;;;;;;12.77;8.20;;;29.70;45.10;;;;;;5053988;28;20236;-75
2022/10/19 08:28:09;;;;;;;9.52;8.55;;;30.10;44.20;;;;;;5038330;28;20696;-74
2022/10/19 08:30:35;;;;;;;11.05;7.85;;;30.50;43.50;;;;;;5053023;28;20208;-75
2022/10/19 08:33:03;;;;;;;9.32;7.95;;;30.90;43.60;;;;;;5051001;28;20656;-75
2022/10/19 08:35:30;;;;;;;10.35;8.48;;;31.30;43.30;;;;;;5045912;28;20175;-75
2022/10/19 08:37:56;;;;;;;10.13;8.25;;;31.70;42.70;;;;;;5050489;28;20180;-74
2022/10/19 08:40:25;;;;;;;15.65;9.05;;;32.00;42.40;;;;;;5052673;28;20244;-74
2022/10/19 08:43:13;;;;;;;12.50;8.50;;;32.40;42.60;;;;;;5051962;28;20183;-74
2022/10/19 08:46:04;;;;;;;11.25;8.00;;;32.70;41.30;;;;;;5050539;28;20755;-74
2022/10/19 08:48:35;;;;;;;8.07;7.15;;;33.00;41.50;;;;;;4972769;28;20616;-75
2022/10/19 08:51:02;;;;;;;7.75;7.05;;;33.20;42.00;;;;;;4972951;28;20299;-75
2022/10/19 08:53:39;;;;;;;6.50;5.93;;;33.30;40.20;;;;;;4978101;28;20273;-74
2022/10/19 08:56:13;;;;;;;5.60;5.00;;;33.40;39.40;;;;;;4975064;28;20780;-74
2022/10/19 08:59:04;;;;;;;4.40;3.88;;;33.30;40.30;;;;;;4977760;28;20188;-74
2022/10/19 09:01:45;;;;;;;3.75;3.47;;;33.30;40.40;;;;;;4976971;28;20182;-75
2022/10/19 09:04:39;;;;;;;4.03;3.72;;;33.30;40.10;;;;;;4978679;28;20194;-75
2022/10/19 09:07:28;;;;;;;3.20;3.00;;;33.30;38.80;;;;;;4976603;28;20198;-75
2022/10/19 09:10:08;;;;;;;3.58;2.92;;;33.20;40.00;;;;;;4973798;28;20264;-75
2022/10/19 09:12:46;;;;;;;3.63;2.80;;;33.30;41.40;;;;;;4973271;28;20211;-75
2022/10/19 09:15:17;;;;;;;2.58;2.42;;;33.10;38.00;;;;;;4976179;28;20190;-75
2022/10/19 09:17:43;;;;;;;2.42;2.25;;;32.90;41.40;;;;;;4975634;28;20182;-74
2022/10/19 09:20:22;;;;;;;3.15;2.85;;;32.70;39.70;;;;;;4974586;28;20214;-76
2022/10/19 09:23:03;;;;;;;6.35;2.45;;;32.50;39.80;;;;;;4973054;28;20197;-75
2022/10/19 09:25:32;;;;;;;2.42;2.20;;;32.20;39.20;;;;;;5014086;28;20191;-75
2022/10/19 09:28:15;;;;;;;2.97;2.88;;;32.10;41.20;;;;;;5056528;28;20266;-75
2022/10/19 09:30:43;;;;;;;2.38;2.33;;;31.90;41.00;;;;;;5050135;28;20270;-75
2022/10/19 09:33:27;;;;;;;2.70;2.50;;;31.70;41.10;;;;;;5054767;28;20218;-75
2022/10/19 09:35:54;;;;;;;4.40;2.10;;;31.60;39.60;;;;;;5055388;28;20189;-76
2022/10/19 09:38:24;;;;;;;2.13;2.08;;;30.90;39.20;;;;;;5053500;28;20178;-75
2022/10/19 09:40:50;;;;;;;2.28;2.05;;;30.80;41.70;;;;;;5053183;28;20183;-76
2022/10/19 09:43:20;;;;;;;2.67;1.77;;;30.70;39.70;;;;;;5052810;28;20195;-73
2022/10/19 09:45:52;;;;;;;1.50;1.50;;;29.60;40.00;;;;;;5034086;28;20183;-74
2022/10/19 09:48:48;;;;;;;2.17;2.17;;;29.30;41.80;;;;;;5053719;28;20632;-74
2022/10/19 09:51:15;;;;;;;3.22;1.90;;;29.10;40.70;;;;;;5052212;28;20223;-75
2022/10/19 09:53:52;;;;;;;2.88;1.80;;;28.80;42.00;;;;;;5054191;28;20191;-75
2022/10/19 09:56:25;;;;;;;1.52;1.52;;;29.00;42.90;;;;;;5054960;28;20225;-74
2022/10/19 09:58:54;;;;;;;3.80;1.77;;;29.20;41.70;;;;;;5038507;28;20179;-73
2022/10/19 10:01:40;;;;;;;1.92;1.83;;;29.30;41.30;;;;;;5052249;28;20183;-74
2022/10/19 10:04:07;;;;;;;1.70;1.70;;;29.30;41.70;;;;;;5054512;28;20179;-75
2022/10/19 10:06:35;;;;;;;3.03;1.75;;;29.40;41.30;;;;;;5052489;28;20198;-75
2022/10/19 10:09:02;;;;;;;1.40;1.35;;;29.60;42.10;;;;;;5057656;28;20276;-75
2022/10/19 10:11:35;;;;;;;2.03;1.92;;;29.80;41.10;;;;;;5056340;28;20235;-75
2022/10/19 10:14:20;;;;;;;2.80;1.77;;;29.50;40.40;;;;;;5054463;28;20184;-75
2022/10/19 10:16:46;;;;;;;2.25;1.92;;;29.70;41.00;;;;;;5056853;28;20237;-75
2022/10/19 10:19:15;;;;;;;2.40;2.00;;;29.90;40.90;;;;;;5055628;28;20175;-75
2022/10/19 10:21:56;;;;;;;2.75;1.90;;;30.20;40.10;;;;;;5056213;28;20183;-75
2022/10/19 10:24:51;;;;;;;1.67;1.67;;;30.50;41.40;;;;;;5051993;28;20182;-76
2022/10/19 10:27:35;;;;;;;1.40;1.40;;;30.80;39.90;;;;;;5037751;28;20187;-76
2022/10/19 10:30:14;;;;;;;2.35;1.80;;;30.90;39.30;;;;;;5050475;28;20221;-74
2022/10/19 10:32:50;;;;;;;1.60;1.60;;;30.90;38.90;;;;;;5057164;28;20183;-75
2022/10/19 10:35:23;;;;;;;2.40;1.88;;;30.90;38.70;;;;;;5052260;28;20202;-73
2022/10/19 10:37:49;;;;;;;2.08;1.95;;;30.90;39.40;;;;;;5048643;28;20183;-74
2022/10/19 10:40:23;;;;;;;1.58;1.58;;;30.60;40.20;;;;;;5049743;28;20198;-73
2022/10/19 10:42:50;;;;;;;1.67;1.58;;;30.60;39.40;;;;;;5034557;28;20218;-73
2022/10/19 10:45:30;;;;;;;1.70;1.70;;;30.70;41.10;;;;;;5050425;28;20262;-75
2022/10/19 10:47:56;;;;;;;2.15;1.73;;;31.00;39.60;;;;;;5051417;28;20180;-75
2022/10/19 10:50:31;;;;;;;2.22;1.75;;;31.30;40.30;;;;;;5051554;28;20210;-75
2022/10/19 10:53:03;;;;;;;1.48;1.45;;;31.50;39.80;;;;;;5046731;28;20690;-74
2022/10/19 10:55:30;;;;;;;1.73;1.70;;;31.70;39.40;;;;;;5052957;28;20202;-74
2022/10/19 10:58:12;;;;;;;2.45;2.00;;;31.90;39.70;;;;;;5048340;28;20214;-74
2022/10/19 11:00:39;;;;;;;2.60;1.80;;;32.20;40.00;;;;;;5034497;28;20184;-74
2022/10/19 11:03:21;;;;;;;3.25;1.70;;;32.40;37.80;;;;;;5053747;28;20633;-74
2022/10/19 11:06:01;;;;;;;1.73;1.63;;;32.10;38.30;;;;;;5053428;28;20853;-74
2022/10/19 11:08:48;;;;;;;4.90;1.77;;;32.20;39.50;;;;;;5050074;28;20214;-73
2022/10/19 11:11:33;;;;;;;2.30;1.63;;;32.30;38.30;;;;;;5046292;28;20657;-74
2022/10/19 11:14:25;;;;;;;1.77;1.77;;;32.10;39.80;;;;;;5051915;28;20190;-75
2022/10/19 11:16:54;;;;;;;1.55;1.55;;;32.20;38.80;;;;;;5059393;28;20547;-74
2022/10/19 11:19:26;;;;;;;1.77;1.67;;;32.40;37.80;;;;;;5050154;28;20210;-74
2022/10/19 11:22:10;;;;;;;2.20;1.08;;;32.40;37.60;;;;;;5049375;28;20206;-74
2022/10/19 11:24:59;;;;;;;1.33;1.15;;;32.00;35.80;;;;;;5055040;28;20186;-74
2022/10/19 11:27:28;;;;;;;2.05;1.48;;;31.40;35.90;;;;;;4949308;28;21035;-74
2022/10/19 11:30:08;;;;;;;1.65;1.58;;;30.80;38.00;;;;;;4952854;28;20739;-75
2022/10/19 11:32:51;;;;;;;2.25;1.60;;;30.80;38.60;;;;;;4951195;28;20194;-75
2022/10/19 11:35:30;;;;;;;1.70;1.60;;;30.90;36.70;;;;;;4947772;28;20194;-75
2022/10/19 11:38:04;;;;;;;1.25;1.25;;;31.00;38.10;;;;;;4934730;28;20195;-75
2022/10/19 11:40:39;;;;;;;2.30;1.60;;;31.10;37.30;;;;;;4950826;28;20190;-75
2022/10/19 11:43:31;;;;;;;1.80;1.52;;;31.30;37.90;;;;;;4950492;28;20333;-75
2022/10/19 11:46:21;;;;;;;1.95;1.33;;;31.10;36.60;;;;;;4955009;28;20237;-75
2022/10/19 11:49:24;;;;;;;2.55;1.58;;;31.00;37.20;;;;;;4949515;28;20201;-75
2022/10/19 11:52:19;;;;;;;1.30;1.08;;;31.00;37.70;;;;;;4951384;28;20229;-74
2022/10/19 11:54:57;;;;;;;1.73;1.73;;;31.10;37.60;;;;;;4951300;28;20217;-75
2022/10/19 11:57:30;;;;;;;1.45;1.42;;;31.30;37.90;;;;;;4951143;28;20202;-75
2022/10/19 12:00:11;;;;;;;2.17;1.75;;;31.50;37.20;;;;;;4950906;28;20733;-75
2022/10/19 12:03:01;;;;;;;1.67;1.65;;;31.70;36.40;;;;;;4951291;28;20193;-75
2022/10/19 12:05:46;;;;;;;3.63;2.03;;;31.60;36.60;;;;;;5045468;28;20201;-75
2022/10/19 12:08:33;;;;;;;2.35;1.48;;;31.30;36.80;;;;;;5050046;28;20226;-74
2022/10/19 12:11:23;;;;;;;1.55;1.55;;;31.20;37.70;;;;;;5051534;28;20648;-75
2022/10/19 12:14:01;;;;;;;1.67;1.50;;;31.00;37.80;;;;;;5033713;28;20187;-75
2022/10/19 12:16:44;;;;;;;4.93;1.63;;;31.00;37.00;;;;;;5047907;28;20233;-75
2022/10/19 12:19:35;;;;;;;1.55;1.55;;;30.50;37.10;;;;;;5051648;28;20187;-75
2022/10/19 12:22:04;;;;;;;1.70;1.63;;;30.30;38.10;;;;;;5049151;28;20262;-76
2022/10/19 12:24:32;;;;;;;1.35;1.30;;;30.10;38.50;;;;;;5047126;28;20191;-75
2022/10/19 12:26:59;;;;;;;1.60;1.50;;;29.90;38.20;;;;;;5045304;28;20687;-75
2022/10/19 12:29:29;;;;;;;8.35;1.58;;;29.80;37.50;;;;;;5049708;28;20597;-75
2022/10/19 12:31:58;;;;;;;1.77;1.67;;;29.40;37.90;;;;;;5047057;28;20211;-76
2022/10/19 12:34:45;;;;;;;1.77;1.73;;;29.30;38.20;;;;;;5048378;28;20191;-74
2022/10/19 12:37:11;;;;;;;1.63;1.52;;;29.20;38.30;;;;;;5051772;28;20182;-73
2022/10/19 12:40:26;;;;;;;1.90;1.90;;;29.10;39.30;;;;;;5050886;28;20720;-74
2022/10/19 12:43:21;;;;;;;1.23;1.23;;;29.00;38.30;;;;;;4973020;28;20229;-74
2022/10/19 12:46:22;;;;;;;1.90;1.80;;;28.90;38.80;;;;;;4979987;28;20209;-74
2022/10/19 12:49:26;;;;;;;1.65;1.55;;;28.80;38.50;;;;;;4977881;28;20180;-74
2022/10/19 12:51:54;;;;;;;2.08;1.40;;;28.60;38.30;;;;;;4970002;28;20233;-72
2022/10/19 12:54:28;;;;;;;1.63;1.63;;;28.60;39.30;;;;;;4973237;28;20190;-72
2022/10/19 12:56:56;;;;;;;1.77;1.50;;;28.40;39.60;;;;;;4981297;28;20195;-73
2022/10/19 12:59:26;;;;;;;2.35;2.10;;;28.10;39.50;;;;;;4980431;28;20273;-74
2022/10/19 13:01:53;;;;;;;1.92;1.85;;;28.10;40.10;;;;;;4966696;28;20296;-74
2022/10/19 13:04:26;;;;;;;1.48;1.13;;;28.10;40.10;;;;;;4978682;28;20743;-73
2022/10/19 13:07:09;;;;;;;1.77;1.70;;;27.80;39.90;;;;;;4978653;28;20182;-73
2022/10/19 13:09:43;;;;;;;2.13;1.42;;;27.60;40.10;;;;;;4964970;28;20316;-72
2022/10/19 13:12:15;;;;;;;2.88;2.00;;;27.60;40.90;;;;;;4976558;28;20234;-73